Time;durP1;ratioP1;P1;durP2;ratioP2;P2;SDS_P1;SDS_P2;PMS_P1;PMS_P2;Temp;Humidity;BMP_temperature;BMP_pressure;BME280_temperature;BME280_humidity;BME280_pressure;Samples;Min_cycle;Max_cycle;Signal;HPM_P1;HPM_P2
2023/06/25 07:01:19;;;;;;;0.20;0.20;;;36.60;98.10;38.10;101738.00;;;;6187430;22;1407915;-64
2023/06/25 07:03:45;;;;;;;0.00;0.00;;;35.80;97.50;41.40;101714.00;;;;6246427;23;20556;-64
2023/06/25 07:06:14;;;;;;;0.13;0.13;;;36.30;98.20;38.90;101737.00;;;;6246433;23;20145;-64
2023/06/25 07:08:42;;;;;;;0.00;0.00;;;36.30;95.90;38.40;101742.00;;;;6245798;23;20501;-64
2023/06/25 07:11:10;;;;;;;0.10;0.10;;;34.60;97.20;38.00;101751.00;;;;6248265;22;20529;-63
2023/06/25 07:13:36;;;;;;;0.10;0.10;;;34.00;97.20;38.90;101742.00;;;;6247694;22;20260;-64
2023/06/25 07:16:05;;;;;;;0.00;0.00;;;34.50;97.40;39.20;101751.00;;;;6247754;23;20566;-64
2023/06/25 07:18:31;;;;;;;0.00;0.00;;;35.10;96.70;39.30;101741.00;;;;6246167;23;20145;-64
2023/06/25 07:20:57;;;;;;;0.00;0.00;;;35.10;96.80;38.90;101742.00;;;;6245945;23;20628;-64
2023/06/25 07:23:22;;;;;;;0.10;0.10;;;35.20;97.00;37.70;101759.00;;;;6247674;23;20198;-64
2023/06/25 07:25:48;;;;;;;1.25;1.15;;;34.10;97.90;39.30;101746.00;;;;6246097;23;20613;-64
2023/06/25 07:28:14;;;;;;;0.10;0.10;;;34.50;97.90;40.00;101739.00;;;;6247830;22;20596;-64
2023/06/25 07:30:40;;;;;;;1.00;0.20;;;35.30;97.60;40.00;101747.00;;;;6245797;23;20157;-64
2023/06/25 07:33:09;;;;;;;0.03;0.03;;;35.80;96.90;37.00;101765.00;;;;6248048;23;20157;-64
2023/06/25 07:35:38;;;;;;;0.00;0.00;;;34.50;97.60;37.90;101758.00;;;;6247708;22;20142;-63
2023/06/25 07:38:10;;;;;;;0.35;0.35;;;34.00;98.70;36.60;101767.00;;;;6247591;23;20146;-63
2023/06/25 07:40:38;;;;;;;0.70;0.70;;;33.30;99.30;38.00;101758.00;;;;6247681;22;20177;-64
2023/06/25 07:43:07;;;;;;;0.00;0.00;;;34.40;98.90;40.10;101736.00;;;;6247668;22;20172;-64
2023/06/25 07:45:33;;;;;;;0.00;0.00;;;35.00;99.10;39.60;101737.00;;;;6246169;23;20150;-64
2023/06/25 07:47:58;;;;;;;0.00;0.00;;;35.20;98.50;37.80;101743.00;;;;6247676;23;20150;-64
2023/06/25 07:50:25;;;;;;;0.08;0.08;;;34.60;98.40;38.80;101737.00;;;;6245325;23;20169;-64
2023/06/25 07:52:51;;;;;;;0.00;0.00;;;34.90;98.80;37.80;101750.00;;;;6245990;23;20164;-64
2023/06/25 07:55:17;;;;;;;0.10;0.10;;;34.60;98.70;38.70;101735.00;;;;6247447;22;20232;-64
2023/06/25 07:57:51;;;;;;;0.00;0.00;;;34.40;99.90;36.70;101752.00;;;;6247708;23;20216;-64
2023/06/25 08:00:17;;;;;;;0.00;0.00;;;34.00;99.70;39.00;101739.00;;;;6247173;23;20169;-64
2023/06/25 08:02:46;;;;;;;0.50;0.47;;;34.50;99.90;40.20;101717.00;;;;6247181;22;20594;-64
2023/06/25 08:05:15;;;;;;;0.00;0.00;;;35.60;99.00;39.90;101724.00;;;;6246009;23;20153;-64
2023/06/25 08:07:44;;;;;;;0.00;0.00;;;35.80;98.80;37.20;101742.00;;;;6246685;23;20164;-64
2023/06/25 08:10:10;;;;;;;0.10;0.10;;;34.70;99.10;40.60;101723.00;;;;6247440;22;20468;-64
2023/06/25 08:12:38;;;;;;;0.00;0.00;;;35.70;99.00;40.70;101724.00;;;;6247502;22;20153;-64
2023/06/25 08:15:05;;;;;;;0.30;0.30;;;36.80;97.80;38.10;101747.00;;;;6247254;23;20144;-64
2023/06/25 08:17:31;;;;;;;0.00;0.00;;;35.70;98.10;38.20;101744.00;;;;6247311;22;20207;-64
2023/06/25 08:19:57;;;;;;;0.10;0.10;;;35.10;98.50;38.20;101738.00;;;;6246582;22;20640;-64
2023/06/25 08:22:25;;;;;;;0.10;0.10;;;34.80;98.40;35.70;101765.00;;;;6245795;23;20162;-65
2023/06/25 08:24:51;;;;;;;0.32;0.32;;;33.80;98.90;34.60;101764.00;;;;6246888;22;20574;-63
2023/06/25 08:27:17;;;;;;;0.03;0.03;;;32.40;99.90;36.70;101749.00;;;;6245706;23;20191;-63
2023/06/25 08:29:43;;;;;;;0.98;0.98;;;33.10;99.90;36.80;101743.00;;;;6246888;22;20214;-63
2023/06/25 08:32:09;;;;;;;0.10;0.10;;;33.30;99.80;37.70;101715.00;;;;6247098;22;20225;-64
2023/06/25 08:34:35;;;;;;;0.10;0.10;;;33.50;99.90;38.80;101718.00;;;;6246656;23;20141;-64
2023/06/25 08:37:01;;;;;;;0.20;0.20;;;34.60;99.20;40.50;101711.00;;;;6246917;23;20573;-64
2023/06/25 08:39:27;;;;;;;0.00;0.00;;;36.00;98.70;41.00;101715.00;;;;6247225;23;20137;-64
2023/06/25 08:41:54;;;;;;;0.85;0.85;;;36.70;97.80;41.30;101690.00;;;;6220244;23;20183;-64
2023/06/25 08:44:20;;;;;;;0.13;0.13;;;37.40;96.50;39.20;101724.00;;;;6247112;22;20142;-64
2023/06/25 08:46:49;;;;;;;0.35;0.35;;;36.60;96.40;36.10;101745.00;;;;6220139;23;20160;-64
2023/06/25 08:49:16;;;;;;;0.00;0.00;;;34.50;98.00;38.50;101726.00;;;;6245480;23;20158;-64
2023/06/25 08:51:45;;;;;;;0.10;0.10;;;34.70;98.40;40.30;101710.00;;;;6245328;23;20179;-64
2023/06/25 08:54:12;;;;;;;0.52;0.30;;;36.00;97.50;39.60;101709.00;;;;6246769;22;20141;-64
2023/06/25 08:56:39;;;;;;;1.08;0.68;;;36.60;96.60;37.10;101734.00;;;;6246922;22;20173;-64
2023/06/25 08:59:05;;;;;;;0.00;0.00;;;35.70;97.40;39.10;101714.00;;;;6246830;22;20154;-64
2023/06/25 09:01:31;;;;;;;0.00;0.00;;;35.40;98.70;38.30;101714.00;;;;6246793;23;20215;-64
2023/06/25 09:03:56;;;;;;;0.28;0.28;;;35.40;98.10;38.30;101708.00;;;;6245104;23;20218;-64
2023/06/25 09:06:27;;;;;;;0.20;0.17;;;35.20;98.30;36.00;101735.00;;;;6246464;23;20153;-63
2023/06/25 09:08:57;;;;;;;0.00;0.00;;;34.60;96.90;38.50;101709.00;;;;6246895;22;20160;-64
2023/06/25 09:11:30;;;;;;;0.00;0.00;;;35.10;97.50;39.20;101709.00;;;;6246371;22;20256;-64
2023/06/25 09:13:56;;;;;;;0.22;0.10;;;35.40;97.30;38.40;101711.00;;;;6245265;23;20138;-64
2023/06/25 09:16:23;;;;;;;0.20;0.20;;;35.40;97.00;35.70;101724.00;;;;6219380;23;20182;-64
2023/06/25 09:18:49;;;;;;;0.15;0.15;;;34.50;96.90;36.90;101718.00;;;;6246555;22;20142;-64
2023/06/25 09:21:15;;;;;;;0.20;0.20;;;34.20;97.70;37.60;101698.00;;;;6246440;23;20180;-64
2023/06/25 09:23:49;;;;;;;1.40;0.45;;;34.40;97.40;39.20;101676.00;;;;6246701;22;20186;-64
2023/06/25 09:26:14;;;;;;;0.00;0.00;;;35.30;97.30;41.80;101687.00;;;;6246726;22;20165;-65
2023/06/25 09:28:51;;;;;;;0.93;0.43;;;37.00;96.30;41.80;101680.00;;;;6244717;23;20145;-64
2023/06/25 09:31:18;;;;;;;0.55;0.30;;;37.90;95.30;40.80;101693.00;;;;6245213;23;20137;-64
2023/06/25 09:33:52;;;;;;;0.40;0.25;;;37.50;94.90;39.90;101700.00;;;;6244760;23;20149;-64
2023/06/25 09:36:18;;;;;;;0.73;0.73;;;37.00;94.70;34.60;101738.00;;;;6244543;23;20472;-64
2023/06/25 09:38:47;;;;;;;1.92;0.88;;;34.00;95.60;34.40;101735.00;;;;6244665;23;20142;-64
2023/06/25 09:41:20;;;;;;;0.30;0.30;;;32.90;96.90;33.00;101742.00;;;;6244791;23;20154;-64
2023/06/25 09:43:46;;;;;;;0.20;0.20;;;31.40;98.20;33.00;101735.00;;;;6219508;23;20558;-64
2023/06/25 09:46:14;;;;;;;0.98;0.98;;;31.30;98.30;33.60;101731.00;;;;6245123;23;20157;-63
2023/06/25 09:48:42;;;;;;;0.20;0.20;;;31.30;99.10;35.80;101704.00;;;;6244673;23;20153;-64
2023/06/25 09:51:12;;;;;;;0.10;0.10;;;32.60;98.50;37.50;101671.00;;;;6244361;23;20189;-64
2023/06/25 09:53:45;;;;;;;0.20;0.20;;;33.70;98.20;35.50;101709.00;;;;6244934;23;20145;-64
2023/06/25 09:56:12;;;;;;;0.00;0.00;;;33.30;98.30;39.40;101672.00;;;;6244989;23;20208;-64
2023/06/25 09:58:38;;;;;;;0.22;0.22;;;35.10;97.90;38.00;101659.00;;;;6244679;23;20443;-64
2023/06/25 10:01:04;;;;;;;0.00;0.00;;;34.70;97.20;41.40;101647.00;;;;6246705;22;20750;-64
2023/06/25 10:03:31;;;;;;;0.03;0.03;;;36.60;96.60;41.00;101659.00;;;;6245484;23;20162;-64
2023/06/25 10:05:59;;;;;;;1.02;0.68;;;37.60;95.00;40.60;101660.00;;;;6246180;23;20157;-64
2023/06/25 10:08:48;;;;;;;0.25;0.25;;;37.80;94.90;38.70;101676.00;;;;6244114;23;20156;-64
2023/06/25 10:11:16;;;;;;;0.20;0.20;;;36.70;94.40;38.90;101671.00;;;;6219510;23;20194;-64
2023/06/25 10:13:46;;;;;;;0.03;0.03;;;35.90;95.00;39.10;101662.00;;;;6244200;23;20586;-64
2023/06/25 10:16:20;;;;;;;1.65;0.70;;;35.90;95.50;36.00;101690.00;;;;6244488;23;20196;-64
2023/06/25 10:18:47;;;;;;;0.32;0.32;;;34.80;95.20;38.40;101665.00;;;;6244307;23;20570;-64
2023/06/25 10:33:23;;;;;;;0.20;0.20;;;34.20;94.70;37.50;101641.00;;;;5070086;28;20673;-64
2023/06/25 10:35:56;;;;;;;0.10;0.10;;;34.50;95.30;36.00;101666.00;;;;5049431;28;20186;-64
2023/06/25 10:38:24;;;;;;;0.10;0.10;;;33.80;95.10;36.20;101669.00;;;;5049277;28;20198;-64
2023/06/25 10:40:50;;;;;;;0.63;0.63;;;34.00;94.90;35.40;101636.00;;;;5050434;28;20189;-64
2023/06/25 10:43:23;;;;;;;0.05;0.05;;;33.10;95.50;38.80;101633.00;;;;5049179;28;20213;-64
2023/06/25 10:45:56;;;;;;;1.13;0.93;;;34.50;95.80;34.50;101664.00;;;;5048855;28;20190;-63
2023/06/25 10:48:24;;;;;;;0.65;0.65;;;33.50;95.10;35.40;101653.00;;;;5049187;28;20190;-63
2023/06/25 10:50:54;;;;;;;0.57;0.57;;;33.30;95.20;38.80;101625.00;;;;5050458;28;20190;-64
2023/06/25 10:53:23;;;;;;;0.65;0.30;;;34.80;94.80;37.70;101633.00;;;;5049896;28;20664;-64
2023/06/25 10:55:52;;;;;;;0.30;0.30;;;35.60;93.50;36.20;101644.00;;;;5048930;28;20546;-63
2023/06/25 10:58:21;;;;;;;0.10;0.10;;;34.10;94.50;37.40;101617.00;;;;5048920;28;20183;-64
2023/06/25 11:00:57;;;;;;;0.73;0.73;;;34.50;93.70;38.20;101625.00;;;;5049741;28;20190;-64
2023/06/25 11:03:26;;;;;;;0.52;0.40;;;35.10;93.20;35.40;101647.00;;;;5043098;28;20191;-64
2023/06/25 11:05:53;;;;;;;0.10;0.10;;;34.10;93.70;38.50;101622.00;;;;5048403;28;20193;-64
2023/06/25 11:08:28;;;;;;;0.77;0.77;;;34.90;93.70;39.70;101612.00;;;;5049787;28;20191;-64
2023/06/25 11:10:56;;;;;;;0.77;0.70;;;36.40;93.20;38.80;101619.00;;;;5045318;28;20243;-64
2023/06/25 11:13:22;;;;;;;0.45;0.38;;;36.40;92.20;37.60;101630.00;;;;5046726;28;20182;-64
2023/06/25 11:15:55;;;;;;;1.48;0.82;;;35.70;92.60;38.30;101617.00;;;;5049505;28;20212;-64
2023/06/25 11:18:22;;;;;;;0.57;0.57;;;35.40;92.50;38.00;101623.00;;;;5048368;28;20182;-64
2023/06/25 11:20:53;;;;;;;0.22;0.22;;;35.60;92.50;37.40;101621.00;;;;5048302;28;20183;-64
2023/06/25 11:23:19;;;;;;;0.57;0.57;;;35.20;92.80;36.20;101626.00;;;;5048326;28;20675;-66
2023/06/25 11:25:48;;;;;;;0.00;0.00;;;34.50;93.00;38.50;101607.00;;;;5049128;28;20218;-64
2023/06/25 11:28:20;;;;;;;0.30;0.30;;;35.30;93.70;38.40;101599.00;;;;5047749;28;20194;-65
2023/06/25 11:30:46;;;;;;;0.60;0.60;;;35.70;92.70;38.00;101608.00;;;;5047546;28;20198;-65
2023/06/25 11:33:21;;;;;;;0.00;0.00;;;36.00;91.90;41.00;101574.00;;;;5031338;28;20275;-65
2023/06/25 11:36:11;;;;;;;0.77;0.63;;;37.10;91.90;40.20;101566.00;;;;5047824;28;20636;-65
2023/06/25 11:38:46;;;;;;;0.10;0.10;;;38.20;90.80;37.10;101602.00;;;;5023519;28;20274;-65
2023/06/25 11:41:15;;;;;;;0.40;0.40;;;36.00;90.90;38.00;101597.00;;;;5049171;28;20208;-65
2023/06/25 11:43:41;;;;;;;0.45;0.45;;;35.80;91.20;36.70;101599.00;;;;5040525;28;20240;-64
2023/06/25 11:46:13;;;;;;;1.02;0.80;;;34.90;91.70;37.30;101592.00;;;;5034917;28;20643;-64
2023/06/25 11:48:48;;;;;;;2.53;1.38;;;35.00;91.70;35.40;101606.00;;;;5035616;28;20194;-64
2023/06/25 11:51:20;;;;;;;0.55;0.55;;;33.40;92.70;37.10;101582.00;;;;5034323;28;20186;-64
2023/06/25 11:53:49;;;;;;;0.82;0.82;;;33.70;92.80;38.00;101582.00;;;;5035287;28;20253;-64
2023/06/25 11:56:15;;;;;;;0.25;0.25;;;34.90;92.70;36.40;101589.00;;;;5034213;28;20231;-64
2023/06/25 11:59:04;;;;;;;0.57;0.57;;;34.40;92.30;37.10;101584.00;;;;5017800;28;20211;-64
2023/06/25 12:01:35;;;;;;;0.55;0.55;;;34.10;92.60;37.30;101550.00;;;;5031765;28;20214;-64
2023/06/25 12:04:02;;;;;;;0.10;0.10;;;34.20;92.70;36.80;101581.00;;;;5035071;28;20245;-64
2023/06/25 12:06:33;;;;;;;0.00;0.00;;;34.10;92.80;38.00;101553.00;;;;5035216;28;20186;-64
2023/06/25 12:09:03;;;;;;;0.65;0.30;;;34.20;93.00;37.90;101558.00;;;;5031185;28;20223;-65
2023/06/25 12:11:37;;;;;;;1.40;1.30;;;34.90;92.30;37.50;101564.00;;;;5035622;28;20664;-64
2023/06/25 12:14:08;;;;;;;1.17;0.93;;;34.60;92.70;36.70;101560.00;;;;5033774;28;20178;-64
2023/06/25 12:16:34;;;;;;;1.02;1.02;;;34.00;92.90;36.00;101549.00;;;;5017448;28;20182;-64
2023/06/25 12:19:08;;;;;;;0.10;0.10;;;33.50;93.30;36.30;101560.00;;;;5033753;28;20206;-64
2023/06/25 12:22:15;;;;;;;0.20;0.20;;;33.40;92.80;35.70;101562.00;;;;5030982;28;20195;-64
2023/06/25 12:24:48;;;;;;;1.58;0.63;;;33.30;93.00;36.90;101550.00;;;;5016712;28;20553;-64
2023/06/25 12:27:36;;;;;;;0.10;0.10;;;33.50;93.60;35.40;101564.00;;;;5033716;28;20289;-64
2023/06/25 12:30:04;;;;;;;0.20;0.20;;;32.90;92.60;36.50;101551.00;;;;5015437;28;20543;-64
2023/06/25 12:32:33;;;;;;;1.25;1.25;;;33.10;93.20;36.00;101558.00;;;;5034863;28;20669;-64
2023/06/25 12:35:05;;;;;;;0.88;0.63;;;33.20;93.00;35.40;101559.00;;;;5035072;28;20191;-64
2023/06/25 12:37:35;;;;;;;0.30;0.30;;;32.80;93.00;36.10;101546.00;;;;5035053;28;20187;-64
2023/06/25 12:40:09;;;;;;;0.65;0.65;;;32.80;93.30;35.50;101545.00;;;;5034813;28;20233;-64
2023/06/25 12:42:37;;;;;;;0.43;0.28;;;32.70;93.00;34.80;101543.00;;;;5034566;28;20269;-64
2023/06/25 12:45:12;;;;;;;0.82;0.82;;;32.40;93.30;34.00;101550.00;;;;5035128;28;20329;-64
2023/06/25 12:47:43;;;;;;;0.35;0.28;;;31.70;93.60;35.40;101535.00;;;;5023738;28;20253;-65
2023/06/25 12:50:18;;;;;;;0.95;0.95;;;31.90;94.20;35.10;101539.00;;;;5034550;28;20194;-64
2023/06/25 12:52:46;;;;;;;0.10;0.10;;;32.10;94.10;35.70;101530.00;;;;5016890;28;20637;-64
2023/06/25 12:55:19;;;;;;;2.83;1.75;;;32.30;93.80;34.90;101540.00;;;;5012663;28;20188;-64
2023/06/25 12:57:55;;;;;;;0.30;0.30;;;32.40;93.40;36.10;101523.00;;;;5032602;28;20260;-64
2023/06/25 13:00:26;;;;;;;0.30;0.30;;;32.50;93.80;35.90;101523.00;;;;5049668;28;20209;-64
2023/06/25 13:02:52;;;;;;;0.95;0.95;;;32.60;93.70;35.60;101523.00;;;;5033018;28;20195;-64
2023/06/25 13:05:41;;;;;;;0.77;0.77;;;32.60;93.60;35.90;101519.00;;;;5033182;28;20241;-64
2023/06/25 13:08:10;;;;;;;0.10;0.10;;;32.70;93.50;35.90;101513.00;;;;5032281;28;20195;-64
2023/06/25 13:10:43;;;;;;;6.57;0.70;;;32.90;93.80;35.60;101522.00;;;;5034240;28;20206;-64
2023/06/25 13:13:12;;;;;;;0.10;0.10;;;32.80;93.70;37.20;101503.00;;;;5016603;28;20209;-64
2023/06/25 13:15:44;;;;;;;0.10;0.10;;;33.10;94.00;37.50;101497.00;;;;5034155;28;20188;-64
2023/06/25 13:18:12;;;;;;;0.10;0.10;;;33.50;93.80;38.10;101495.00;;;;5032914;28;20179;-64
2023/06/25 13:20:41;;;;;;;1.38;1.10;;;33.90;93.40;36.20;101509.00;;;;5013024;28;20191;-64
2023/06/25 13:23:12;;;;;;;0.20;0.20;;;33.50;93.40;36.50;101507.00;;;;5026943;28;20620;-64
2023/06/25 13:25:41;;;;;;;0.17;0.17;;;33.30;93.70;36.40;101505.00;;;;5033783;28;20265;-64
2023/06/25 13:28:13;;;;;;;0.10;0.10;;;33.10;93.40;35.80;101500.00;;;;5032955;28;20206;-64
2023/06/25 13:30:45;;;;;;;0.32;0.32;;;32.70;93.00;36.10;101498.00;;;;5027174;28;20202;-64
2023/06/25 13:33:20;;;;;;;0.35;0.35;;;32.80;93.00;36.00;101506.00;;;;5021166;28;20215;-64
2023/06/25 13:35:57;;;;;;;0.10;0.10;;;32.80;93.30;36.50;101480.00;;;;5033693;28;20186;-64
2023/06/25 13:38:25;;;;;;;1.05;0.95;;;32.80;93.40;35.10;101496.00;;;;5033512;28;20283;-64
2023/06/25 13:40:54;;;;;;;0.57;0.20;;;32.60;93.40;36.70;101483.00;;;;5034162;28;20189;-64
2023/06/25 13:43:23;;;;;;;0.10;0.10;;;32.80;94.00;35.90;101488.00;;;;5033286;28;20265;-64
2023/06/25 13:45:52;;;;;;;0.20;0.20;;;32.70;93.80;36.50;101473.00;;;;5032960;28;20187;-64
2023/06/25 13:48:21;;;;;;;0.10;0.10;;;32.80;94.10;35.70;101481.00;;;;5015956;28;20202;-64
2023/06/25 13:50:49;;;;;;;0.35;0.35;;;32.80;93.80;36.90;101474.00;;;;5033766;28;20217;-64
2023/06/25 13:53:19;;;;;;;0.10;0.10;;;33.00;94.00;36.70;101478.00;;;;5032111;28;20206;-64
2023/06/25 13:56:26;;;;;;;0.85;0.77;;;33.20;93.80;35.40;101487.00;;;;5032216;28;20191;-64
2023/06/25 13:58:54;;;;;;;0.57;0.57;;;32.80;92.70;36.00;101473.00;;;;5015910;28;20179;-64
2023/06/25 14:01:43;;;;;;;1.10;1.10;;;32.60;93.10;35.30;101477.00;;;;5032095;28;20198;-64
2023/06/25 14:04:21;;;;;;;0.47;0.47;;;32.50;92.80;35.30;101477.00;;;;5031918;28;20212;-64
2023/06/25 14:06:50;;;;;;;0.10;0.10;;;32.40;93.00;35.90;101456.00;;;;5033281;28;20683;-64
2023/06/25 14:09:27;;;;;;;0.52;0.52;;;32.50;93.30;35.30;101469.00;;;;5031845;28;20182;-64
2023/06/25 14:12:00;;;;;;;0.68;0.68;;;32.40;93.20;35.40;101462.00;;;;5031588;28;20240;-64
2023/06/25 14:14:29;;;;;;;1.05;1.00;;;32.40;93.20;36.10;101449.00;;;;5032998;28;20262;-64
2023/06/25 14:17:02;;;;;;;1.95;1.85;;;32.50;93.60;35.60;101447.00;;;;5032884;28;20771;-64
2023/06/25 14:19:30;;;;;;;0.70;0.70;;;32.50;93.40;35.50;101443.00;;;;5033518;28;20262;-64
2023/06/25 14:21:58;;;;;;;0.47;0.47;;;32.40;93.50;35.40;101452.00;;;;5031958;28;20202;-64
2023/06/25 14:24:27;;;;;;;0.25;0.25;;;32.30;93.40;36.00;101443.00;;;;5031604;28;20185;-64
2023/06/25 14:26:56;;;;;;;1.00;0.60;;;32.50;93.80;36.20;101434.00;;;;5015422;28;20187;-64
2023/06/25 14:29:24;;;;;;;0.20;0.20;;;32.50;94.00;35.70;101450.00;;;;5032803;28;20265;-64
2023/06/25 14:31:50;;;;;;;0.40;0.40;;;32.60;94.30;35.90;101452.00;;;;5031927;28;20210;-64
2023/06/25 14:34:19;;;;;;;0.98;0.95;;;32.70;94.40;35.30;101457.00;;;;5031581;28;20198;-64
2023/06/25 14:36:55;;;;;;;0.10;0.10;;;32.60;94.10;36.30;101420.00;;;;5032802;28;20198;-64
2023/06/25 14:39:24;;;;;;;0.10;0.10;;;32.60;94.10;35.50;101450.00;;;;5032934;28;20214;-64
2023/06/25 14:41:58;;;;;;;3.17;1.80;;;32.50;94.10;35.80;101444.00;;;;5031580;28;20178;-64
2023/06/25 14:44:27;;;;;;;0.40;0.40;;;32.50;94.20;36.00;101430.00;;;;5033002;28;20190;-64
2023/06/25 14:46:54;;;;;;;0.93;0.93;;;32.50;94.30;35.30;101438.00;;;;5032870;28;20233;-64
2023/06/25 14:49:23;;;;;;;0.65;0.65;;;32.40;95.00;35.00;101444.00;;;;5015158;28;20187;-64
2023/06/25 14:51:51;;;;;;;0.22;0.22;;;32.20;94.50;35.30;101434.00;;;;5031111;28;20286;-64
2023/06/25 14:54:30;;;;;;;0.82;0.82;;;32.20;94.70;35.30;101431.00;;;;5031558;28;20703;-64
2023/06/25 14:56:56;;;;;;;0.55;0.55;;;32.30;94.80;34.90;101411.00;;;;5032541;28;20198;-64
2023/06/25 14:59:42;;;;;;;2.38;1.13;;;32.20;94.70;35.40;101420.00;;;;5032878;28;20278;-64
2023/06/25 15:02:11;;;;;;;0.68;0.68;;;32.20;94.90;35.40;101422.00;;;;5030864;28;20642;-64
2023/06/25 15:04:41;;;;;;;0.10;0.10;;;32.20;95.20;35.60;101423.00;;;;5032527;28;20197;-64
2023/06/25 15:07:09;;;;;;;1.42;1.33;;;32.30;95.60;34.80;101425.00;;;;5031078;28;20652;-64
2023/06/25 15:09:40;;;;;;;1.15;1.05;;;32.20;95.40;35.10;101424.00;;;;5032671;28;20189;-64
2023/06/25 15:12:09;;;;;;;0.10;0.10;;;32.10;95.80;35.30;101408.00;;;;5031302;28;20211;-64
2023/06/25 15:14:51;;;;;;;0.15;0.15;;;32.10;95.50;35.00;101407.00;;;;5044823;28;20283;-64
2023/06/25 15:17:37;;;;;;;1.17;1.08;;;32.10;95.10;35.90;101390.00;;;;5060088;28;20191;-64
2023/06/25 15:20:03;;;;;;;1.50;1.35;;;32.30;95.50;35.10;101407.00;;;;5018504;28;20529;-64
2023/06/25 15:22:34;;;;;;;0.93;0.50;;;32.30;95.50;35.60;101396.00;;;;5043132;28;20191;-64
2023/06/25 15:25:05;;;;;;;0.68;0.68;;;32.20;95.60;35.10;101395.00;;;;5031673;28;20187;-64
2023/06/25 15:27:40;;;;;;;0.55;0.55;;;32.30;95.30;35.00;101397.00;;;;5036064;28;20203;-64
2023/06/25 15:30:10;;;;;;;1.30;0.70;;;32.20;95.20;35.30;101391.00;;;;5035125;28;20640;-64
2023/06/25 15:32:38;;;;;;;1.15;1.02;;;32.10;95.50;35.10;101378.00;;;;5034867;28;20237;-64
2023/06/25 15:35:28;;;;;;;1.45;0.55;;;32.20;95.50;35.10;101389.00;;;;5036106;28;20548;-64
2023/06/25 15:37:58;;;;;;;0.20;0.20;;;32.10;95.40;35.60;101381.00;;;;5036208;28;20591;-64
2023/06/25 15:40:31;;;;;;;0.50;0.50;;;32.20;95.50;35.30;101374.00;;;;5035907;28;20178;-64
2023/06/25 15:43:09;;;;;;;2.50;0.93;;;32.20;95.90;35.90;101370.00;;;;5018104;28;20616;-64
2023/06/25 15:45:39;;;;;;;0.13;0.13;;;32.40;95.90;35.30;101382.00;;;;5034540;28;20193;-64
2023/06/25 15:48:36;;;;;;;0.10;0.10;;;32.20;95.90;35.50;101376.00;;;;5034618;28;20186;-64
2023/06/25 15:51:10;;;;;;;1.88;0.93;;;32.20;95.60;35.20;101376.00;;;;5050893;28;20179;-64
2023/06/25 15:53:39;;;;;;;0.35;0.35;;;32.20;95.70;35.40;101371.00;;;;5034548;28;20206;-63
2023/06/25 15:56:13;;;;;;;0.10;0.10;;;32.20;95.50;35.40;101366.00;;;;5032356;28;20248;-63
2023/06/25 15:58:43;;;;;;;0.47;0.47;;;32.20;95.50;35.90;101362.00;;;;5034292;28;20178;-63
2023/06/25 16:01:14;;;;;;;0.52;0.35;;;32.40;95.40;35.90;101360.00;;;;5034344;28;20186;-64
2023/06/25 16:03:46;;;;;;;0.10;0.10;;;32.50;95.20;36.40;101352.00;;;;5034325;28;20179;-64
2023/06/25 16:06:14;;;;;;;0.40;0.40;;;32.80;94.90;35.80;101362.00;;;;5017968;28;20191;-64
2023/06/25 16:08:43;;;;;;;0.50;0.50;;;32.80;94.30;35.20;101334.00;;;;5034082;28;20175;-64
2023/06/25 16:11:21;;;;;;;1.30;1.20;;;32.40;94.50;35.50;101355.00;;;;5034127;28;20328;-64
2023/06/25 16:13:58;;;;;;;0.73;0.73;;;32.30;94.80;34.70;101352.00;;;;5034938;28;20194;-64
2023/06/25 16:16:35;;;;;;;1.30;0.65;;;32.10;95.10;35.10;101345.00;;;;5034085;28;20265;-64
2023/06/25 16:19:30;;;;;;;0.73;0.73;;;32.00;95.40;35.00;101349.00;;;;5033671;28;20645;-64
2023/06/25 16:22:06;;;;;;;0.20;0.20;;;32.00;95.40;35.30;101343.00;;;;5027643;28;20669;-64
2023/06/25 16:24:41;;;;;;;0.38;0.38;;;32.00;95.50;34.60;101341.00;;;;5028750;28;20179;-64
2023/06/25 16:27:12;;;;;;;0.70;0.70;;;31.90;95.70;34.60;101336.00;;;;5034912;28;20205;-64
2023/06/25 16:29:40;;;;;;;1.83;0.70;;;31.80;95.50;34.70;101341.00;;;;5033790;28;20667;-64
2023/06/25 16:32:09;;;;;;;0.32;0.32;;;31.70;95.50;34.50;101342.00;;;;5034847;28;20217;-64
2023/06/25 16:34:44;;;;;;;0.25;0.25;;;31.70;95.30;35.90;101317.00;;;;5034698;28;20535;-64
2023/06/25 16:37:12;;;;;;;0.68;0.68;;;32.00;95.10;35.90;101321.00;;;;5033561;28;20182;-64
2023/06/25 16:39:41;;;;;;;0.75;0.60;;;32.30;94.80;35.50;101326.00;;;;5026249;28;20174;-64
2023/06/25 16:42:27;;;;;;;0.60;0.60;;;32.30;94.70;35.30;101323.00;;;;5033436;28;20187;-64
2023/06/25 16:45:02;;;;;;;0.40;0.40;;;32.20;94.60;35.40;101318.00;;;;5019708;28;20194;-65
2023/06/25 16:47:30;;;;;;;0.30;0.30;;;32.20;94.70;35.70;101316.00;;;;5034188;28;20274;-63
2023/06/25 16:49:59;;;;;;;0.32;0.32;;;32.10;94.90;34.90;101328.00;;;;5033404;28;20186;-63
2023/06/25 16:52:27;;;;;;;0.20;0.20;;;32.10;95.00;34.80;101323.00;;;;5021487;28;20207;-63
2023/06/25 16:55:13;;;;;;;0.38;0.38;;;31.90;95.10;35.70;101318.00;;;;5033295;28;20183;-63
2023/06/25 16:57:41;;;;;;;1.20;1.20;;;32.10;95.40;35.50;101285.00;;;;5034148;28;20205;-63
2023/06/25 17:00:12;;;;;;;1.13;0.82;;;32.20;95.00;34.80;101300.00;;;;5013972;28;20198;-63
2023/06/25 17:02:43;;;;;;;0.35;0.35;;;31.90;95.20;34.60;101320.00;;;;5057851;28;20600;-64
2023/06/25 17:05:26;;;;;;;0.10;0.10;;;31.70;95.40;34.80;101319.00;;;;5033224;28;20190;-64
2023/06/25 17:07:57;;;;;;;1.58;1.55;;;31.60;95.10;34.90;101317.00;;;;5033104;28;20237;-63
2023/06/25 17:10:46;;;;;;;0.40;0.40;;;31.70;95.10;35.30;101306.00;;;;5016477;28;20183;-63
2023/06/25 17:13:19;;;;;;;0.32;0.32;;;31.90;95.00;34.80;101319.00;;;;5033830;28;20214;-63
2023/06/25 17:15:48;;;;;;;0.95;0.93;;;31.90;95.40;34.60;101304.00;;;;5033956;28;20205;-64
2023/06/25 17:18:20;;;;;;;0.50;0.50;;;31.80;95.50;35.00;101289.00;;;;5032694;28;20593;-64
2023/06/25 17:20:48;;;;;;;1.35;1.02;;;31.80;95.80;34.50;101307.00;;;;5034228;28;20197;-64
2023/06/25 17:23:20;;;;;;;0.20;0.20;;;31.70;95.80;34.50;101303.00;;;;5034115;28;20653;-63
2023/06/25 17:25:54;;;;;;;0.38;0.38;;;31.50;96.20;34.40;101312.00;;;;5033908;28;20198;-63
2023/06/25 17:28:23;;;;;;;0.10;0.10;;;31.40;96.40;34.60;101296.00;;;;5032778;28;20183;-63
2023/06/25 17:30:52;;;;;;;0.20;0.20;;;31.30;96.60;35.20;101297.00;;;;5032844;28;20219;-64
2023/06/25 17:33:29;;;;;;;0.52;0.52;;;31.60;96.50;34.80;101280.00;;;;5032226;28;20240;-64
2023/06/25 17:36:07;;;;;;;0.98;0.88;;;31.70;96.40;34.40;101311.00;;;;5033867;28;20182;-63
2023/06/25 17:38:39;;;;;;;0.73;0.38;;;31.50;96.50;34.10;101310.00;;;;5033449;28;20273;-64
2023/06/25 17:41:09;;;;;;;0.30;0.30;;;31.30;96.50;34.30;101308.00;;;;5033539;28;20183;-63
2023/06/25 17:43:39;;;;;;;0.68;0.68;;;31.20;96.70;34.40;101311.00;;;;5033368;28;20608;-64
2023/06/25 17:46:05;;;;;;;0.30;0.30;;;31.40;97.00;34.10;101319.00;;;;5033394;28;20240;-64
2023/06/25 17:48:40;;;;;;;0.10;0.10;;;31.10;97.50;35.40;101303.00;;;;5033187;28;20182;-64
2023/06/25 17:51:11;;;;;;;0.40;0.40;;;31.50;97.80;35.00;101312.00;;;;5015664;28;20277;-64
2023/06/25 17:53:43;;;;;;;0.13;0.13;;;31.60;97.90;34.90;101319.00;;;;5033146;28;20186;-64
2023/06/25 17:56:15;;;;;;;0.90;0.90;;;31.60;98.30;35.20;101289.00;;;;5033376;28;20190;-64
2023/06/25 17:58:49;;;;;;;0.40;0.40;;;31.50;98.20;35.10;101315.00;;;;5032089;28;20260;-64
2023/06/25 18:01:20;;;;;;;0.10;0.10;;;31.50;98.20;34.50;101317.00;;;;5031989;28;20186;-64
2023/06/25 18:03:48;;;;;;;0.20;0.20;;;31.50;98.00;34.90;101308.00;;;;5033268;28;20187;-64
2023/06/25 18:06:17;;;;;;;0.22;0.22;;;31.40;98.20;34.80;101320.00;;;;5032298;28;20207;-64
2023/06/25 18:08:49;;;;;;;0.88;0.88;;;31.50;98.20;34.80;101309.00;;;;5032065;28;20180;-64
2023/06/25 18:11:26;;;;;;;0.20;0.20;;;31.30;98.50;35.10;101318.00;;;;5032010;28;20167;-64
2023/06/25 18:13:57;;;;;;;0.40;0.40;;;31.40;98.80;34.70;101317.00;;;;5032974;28;20197;-63
2023/06/25 18:16:25;;;;;;;0.22;0.22;;;31.40;98.70;34.50;101314.00;;;;5033213;28;20191;-64